Home > Products > Valid Products > TAF

000
FTUS41 KCAR 030638 AAA
TAFBHB
TAF AMD
KBHB 030638Z 0307/0406 00000KT 6SM BR FEW003
     FM031200 VRB03KT P6SM SCT200
     FM031500 01004KT P6SM BKN060
      AMD LTD TO CLD VIS AND WIND=



000
FTUS41 KCAR 030620 CCA
TAFBHB
TAF COR
KBHB 030620Z 0306/0406 00000KT 5SM BR FEW003
     FM031200 VRB03KT P6SM SCT200
     FM031500 01004KT P6SM BKN060
      AMD LTD TO CLD VIS AND WIND=



000
FTUS41 KCAR 030558
TAFPQI
TAF
KPQI 030558Z 0306/0406 28005KT 6SM BR SCT090
     FM031100 34007KT P6SM BKN008
     FM031300 34008KT P6SM FEW250
     FM031700 33012KT P6SM SKC
     FM040000 35004KT P6SM SKC
      AMD LTD TO CLD VIS AND WIND=



000
FTUS41 KCAR 030558
TAFHUL
TAF
KHUL 030558Z 0306/0406 VRB03KT 6SM BR BKN070
     FM031200 34007KT P6SM BKN008
     FM031300 34007KT P6SM SCT250
     FM031900 34011KT P6SM SKC
     FM032300 35005KT P6SM SKC=



000
FTUS41 KCAR 030558
TAFCAR
TAF
KCAR 030558Z 0306/0406 28004KT 3SM BR SCT100
     FM030900 35008KT 6SM BR BKN007
     FM031200 34010KT P6SM SCT250
     FM040000 35004KT P6SM SKC=



000
FTUS41 KCAR 030558
TAFBHB
TAF
KBHB 030558Z 0306/0406 00000KT 6SM BR FEW003
     FM031200 VRB03KT P6SM SCT200
     FM031500 01004KT P6SM BKN060
      AMD LTD TO CLD VIS AND WIND=



000
FTUS41 KCAR 030558
TAFBGR
TAF
KBGR 030558Z 0306/0406 28004KT 6SM BR SCT200
     FM030900 33004KT 3SM BR SCT090
     FM031200 VRB03KT 6SM BR SCT010
     FM031500 35007KT P6SM SCT040=



000
FTUS41 KCAR 030558
TAFBGR
TAF
KBGR 030558Z 0306/0406 28004KT 6SM BR SCT200
     FM030900 33004KT 3SM BR SCT090
     FM031200 VRB03KT 6SM BR SCT010
     FM031500 35007KT P6SM SCT040=



000
FTUS41 KCAR 030558
TAFBHB
TAF
KBHB 030558Z 0306/0406 00000KT 6SM BR FEW003
     FM031200 VRB03KT P6SM SCT200
     FM031500 01004KT P6SM BKN060
      AMD LTD TO CLD VIS AND WIND=



000
FTUS41 KCAR 030558
TAFPQI
TAF
KPQI 030558Z 0306/0406 28005KT 6SM BR SCT090
     FM031100 34007KT P6SM BKN008
     FM031300 34008KT P6SM FEW250
     FM031700 33012KT P6SM SKC
     FM040000 35004KT P6SM SKC
      AMD LTD TO CLD VIS AND WIND=



000
FTUS41 KCAR 030558
TAFHUL
TAF
KHUL 030558Z 0306/0406 VRB03KT 6SM BR BKN070
     FM031200 34007KT P6SM BKN008
     FM031300 34007KT P6SM SCT250
     FM031900 34011KT P6SM SKC
     FM032300 35005KT P6SM SKC=



000
FTUS41 KCAR 030558
TAFCAR
TAF
KCAR 030558Z 0306/0406 28004KT 3SM BR SCT100
     FM030900 35008KT 6SM BR BKN007
     FM031200 34010KT P6SM SCT250
     FM040000 35004KT P6SM SKC=



000
FTUS41 KCAR 022328
TAFPQI
TAF
KPQI 022328Z 0300/0324 28006KT P6SM SCT050
     FM031400 34012G20KT P6SM SCT050
      AMD LTD TO CLD VIS AND WIND=



000
FTUS41 KCAR 022328
TAFBGR
TAF
KBGR 022328Z 0300/0324 24006KT P6SM SCT200
     FM030400 28006KT P6SM SCT050
     FM031400 34008G16KT P6SM SCT050=



000
FTUS41 KCAR 022328
TAFHUL
TAF
KHUL 022328Z 0300/0324 28006KT P6SM SCT050
     FM031400 34010G18KT P6SM SCT050=



000
FTUS41 KCAR 022328
TAFCAR
TAF
KCAR 022328Z 0300/0324 28006KT P6SM SCT050
     FM031400 34012G20KT P6SM SCT050=



000
FTUS41 KCAR 022328
TAFBHB
TAF
KBHB 022328Z 0300/0324 24006KT P6SM SCT200
     FM030400 26006KT P6SM SCT050
     FM030800 28004KT 2SM BR SCT008
     FM031000 32006KT P6SM SCT050
     FM031400 36008KT P6SM SCT050
      AMD LTD TO CLD VIS AND WIND=



000
FTUS41 KCAR 022328
TAFHUL
TAF
KHUL 022328Z 0300/0324 28006KT P6SM SCT050
     FM031400 34010G18KT P6SM SCT050=



000
FTUS41 KCAR 022328
TAFPQI
TAF
KPQI 022328Z 0300/0324 28006KT P6SM SCT050
     FM031400 34012G20KT P6SM SCT050
      AMD LTD TO CLD VIS AND WIND=



000
FTUS41 KCAR 022328
TAFBHB
TAF
KBHB 022328Z 0300/0324 24006KT P6SM SCT200
     FM030400 26006KT P6SM SCT050
     FM030800 28004KT 2SM BR SCT008
     FM031000 32006KT P6SM SCT050
     FM031400 36008KT P6SM SCT050
      AMD LTD TO CLD VIS AND WIND=



000
FTUS41 KCAR 022328
TAFBGR
TAF
KBGR 022328Z 0300/0324 24006KT P6SM SCT200
     FM030400 28006KT P6SM SCT050
     FM031400 34008G16KT P6SM SCT050=



000
FTUS41 KCAR 022328
TAFCAR
TAF
KCAR 022328Z 0300/0324 28006KT P6SM SCT050
     FM031400 34012G20KT P6SM SCT050=



000
FTUS41 KCAR 022253 AAA
TAFCAR
TAF AMD
KCAR 022253Z 0223/0318 VRB03KT P6SM SCT050
     FM031400 34009G17KT P6SM FEW250=



000
FTUS41 KCAR 022251 AAA
TAFPQI
TAF AMD
KPQI 022251Z 0223/0318 VRB03KT P6SM SCT050
     FM031400 34010G18KT P6SM FEW250
      AMD LTD TO CLD VIS AND WIND=



000
FTUS41 KCAR 022251 AAA
TAFPQI
TAF AMD
KPQI 022251Z 0223/0318 VRB03KT P6SM SCT050
     FM031400 34010G18KT P6SM FEW250
      AMD LTD TO CLD VIS AND WIND=



000
FTUS41 KCAR 021720
TAFCAR
TAF
KCAR 021720Z 0218/0318 26006KT P6SM VCTS BKN035CB
     FM022000 28006KT P6SM VCTS BKN060CB
     FM030000 30004KT P6SM BKN100
     FM031400 34009G17KT P6SM FEW250=



000
FTUS41 KCAR 021720
TAFHUL
TAF
KHUL 021720Z 0218/0318 26008KT P6SM VCTS SCT040CB
     FM021900 26009KT P6SM VCTS SCT040CB BKN250
     FM022300 VRB04KT P6SM BKN140
     FM031400 34008G16KT P6SM FEW250=



000
FTUS41 KCAR 021720
TAFPQI
TAF
KPQI 021720Z 0218/0318 28009KT P6SM VCTS BKN040CB
     FM030000 31005KT P6SM BKN060
     FM031400 34010G18KT P6SM FEW250
      AMD LTD TO CLD VIS AND WIND=



000
FTUS41 KCAR 021720
TAFBHB
TAF
KBHB 021720Z 0218/0318 20009KT P6SM FEW150
     FM030000 22006KT P6SM FEW120
     FM030300 VRB03KT P6SM FEW120
     FM030700 VRB03KT 1SM BR FEW250
     FM031400 02005KT P6SM SCT250
      AMD LTD TO CLD VIS AND WIND=



000
FTUS41 KCAR 021720
TAFPQI
TAF
KPQI 021720Z 0218/0318 28009KT P6SM VCTS BKN040CB
     FM030000 31005KT P6SM BKN060
     FM031400 34010G18KT P6SM FEW250
      AMD LTD TO CLD VIS AND WIND=



000
FTUS41 KCAR 021720
TAFBGR
TAF
KBGR 021720Z 0218/0318 26008KT P6SM FEW150
     FM030000 VRB05KT P6SM FEW200
     FM031000 00000KT P6SM BKN010
     FM031100 36007KT P6SM BKN060=



000
FTUS41 KCAR 021720
TAFHUL
TAF
KHUL 021720Z 0218/0318 26008KT P6SM VCTS SCT040CB
     FM021900 26009KT P6SM VCTS SCT040CB BKN250
     FM022300 VRB04KT P6SM BKN140
     FM031400 34008G16KT P6SM FEW250=



000
FTUS41 KCAR 021720
TAFBHB
TAF
KBHB 021720Z 0218/0318 20009KT P6SM FEW150
     FM030000 22006KT P6SM FEW120
     FM030300 VRB03KT P6SM FEW120
     FM030700 VRB03KT 1SM BR FEW250
     FM031400 02005KT P6SM SCT250
      AMD LTD TO CLD VIS AND WIND=



000
FTUS41 KCAR 021720
TAFCAR
TAF
KCAR 021720Z 0218/0318 26006KT P6SM VCTS BKN035CB
     FM022000 28006KT P6SM VCTS BKN060CB
     FM030000 30004KT P6SM BKN100
     FM031400 34009G17KT P6SM FEW250=



000
FTUS41 KCAR 021720
TAFBGR
TAF
KBGR 021720Z 0218/0318 26008KT P6SM FEW150
     FM030000 VRB05KT P6SM FEW200
     FM031000 00000KT P6SM BKN010
     FM031100 36007KT P6SM BKN060=



000
FTUS41 KCAR 021617 AAB
TAFCAR
TAF AMD
KCAR 021617Z 0216/0312 24005KT P6SM BKN030
     FM021800 27007KT P6SM VCTS BKN035CB
     FM030100 VRB03KT P6SM BKN200=



000
FTUS41 KCAR 021617 AAB
TAFCAR
TAF AMD
KCAR 021617Z 0216/0312 24005KT P6SM BKN030
     FM021800 27007KT P6SM VCTS BKN035CB
     FM030100 VRB03KT P6SM BKN200=



000
FTUS41 KCAR 021205 CCA
TAFBHB
TAF COR
KBHB 021205Z 0212/0312 21006KT P6SM FEW120
      AMD LTD TO CLD VIS AND WIND=



000
FTUS41 KCAR 021205 CCA
TAFBHB
TAF COR
KBHB 021205Z 0212/0312 21006KT P6SM FEW120
      AMD LTD TO CLD VIS AND WIND=



000
FTUS41 KCAR 021204 AAA
TAFBHB
TAF AMD
KBHB 021204Z 0212/0312 23006KT P6SM FEW120
      AMD LTD TO CLD VIS AND WIND=



000
FTUS41 KCAR 021204 AAA
TAFBHB
TAF AMD
KBHB 021204Z 0212/0312 23006KT P6SM FEW120
      AMD LTD TO CLD VIS AND WIND=



000
FTUS41 KCAR 021120
TAFBHB
TAF
KBHB 021120Z 0212/0312 VRB03KT 6SM BR BKN004
     FM021330 23006KT P6SM FEW130
      AMD LTD TO CLD VIS AND WIND=



000
FTUS41 KCAR 021120
TAFPQI
TAF
KPQI 021120Z 0212/0312 24005KT P6SM SCT035
     FM021700 26007KT P6SM VCTS SCT050CB
     FM030100 VRB03KT P6SM BKN090
      AMD LTD TO CLD VIS AND WIND=



000
FTUS41 KCAR 021120
TAFCAR
TAF
KCAR 021120Z 0212/0312 24005KT P6SM SCT030
     FM021700 27007KT P6SM VCTS BKN045CB
     FM030100 VRB03KT P6SM BKN200=



000
FTUS41 KCAR 021120
TAFHUL
TAF
KHUL 021120Z 0212/0312 23004KT P6SM SCT030
     FM022100 28007KT P6SM VCSH SCT040
     FM030100 VRB03KT P6SM SCT050=



000
FTUS41 KCAR 021120
TAFHUL
TAF
KHUL 021120Z 0212/0312 23004KT P6SM SCT030
     FM022100 28007KT P6SM VCSH SCT040
     FM030100 VRB03KT P6SM SCT050=



000
FTUS41 KCAR 021120
TAFCAR
TAF
KCAR 021120Z 0212/0312 24005KT P6SM SCT030
     FM021700 27007KT P6SM VCTS BKN045CB
     FM030100 VRB03KT P6SM BKN200=



000
FTUS41 KCAR 021120
TAFPQI
TAF
KPQI 021120Z 0212/0312 24005KT P6SM SCT035
     FM021700 26007KT P6SM VCTS SCT050CB
     FM030100 VRB03KT P6SM BKN090
      AMD LTD TO CLD VIS AND WIND=



000
FTUS41 KCAR 021120
TAFBGR
TAF
KBGR 021120Z 0212/0312 VRB03KT P6SM SCT005
     FM021300 23005KT P6SM FEW150=



000
FTUS41 KCAR 021120
TAFBGR
TAF
KBGR 021120Z 0212/0312 VRB03KT P6SM SCT005
     FM021300 23005KT P6SM FEW150=



000
FTUS41 KCAR 021120
TAFBHB
TAF
KBHB 021120Z 0212/0312 VRB03KT 6SM BR BKN004
     FM021330 23006KT P6SM FEW130
      AMD LTD TO CLD VIS AND WIND=



000
FTUS41 KCAR 020558
TAFBHB
TAF
KBHB 020558Z 0206/0306 23004KT P6SM SKC
     FM021000 VRB03KT 6SM BR SCT001
     FM021300 23006KT P6SM FEW130
      AMD LTD TO CLD VIS AND WIND=



000
FTUS41 KCAR 020558
TAFCAR
TAF
KCAR 020558Z 0206/0306 20004KT P6SM SKC
     FM021200 24005KT P6SM SCT030
     FM021700 27007KT P6SM VCTS BKN045CB
     FM030100 VRB03KT P6SM BKN200=



000
FTUS41 KCAR 020558
TAFBHB
TAF
KBHB 020558Z 0206/0306 23004KT P6SM SKC
     FM021000 VRB03KT 6SM BR SCT001
     FM021300 23006KT P6SM FEW130
      AMD LTD TO CLD VIS AND WIND=



000
FTUS41 KCAR 020558
TAFBGR
TAF
KBGR 020558Z 0206/0306 VRB03KT P6SM SKC
     FM021300 23005KT P6SM FEW150=



000
FTUS41 KCAR 020558
TAFPQI
TAF
KPQI 020558Z 0206/0306 VRB03KT P6SM FEW140
     FM021200 24005KT P6SM SCT035
     FM021700 26007KT P6SM VCTS SCT050CB
     FM030100 VRB03KT P6SM BKN090
      AMD LTD TO CLD VIS AND WIND=



000
FTUS41 KCAR 020558
TAFHUL
TAF
KHUL 020558Z 0206/0306 00000KT P6SM FEW200
     FM021200 23004KT P6SM SCT030
     FM022100 28007KT P6SM VCSH SCT040
     FM030100 VRB03KT P6SM SCT050=



000
FTUS41 KCAR 020558
TAFCAR
TAF
KCAR 020558Z 0206/0306 20004KT P6SM SKC
     FM021200 24005KT P6SM SCT030
     FM021700 27007KT P6SM VCTS BKN045CB
     FM030100 VRB03KT P6SM BKN200=



000
FTUS41 KCAR 020558
TAFPQI
TAF
KPQI 020558Z 0206/0306 VRB03KT P6SM FEW140
     FM021200 24005KT P6SM SCT035
     FM021700 26007KT P6SM VCTS SCT050CB
     FM030100 VRB03KT P6SM BKN090
      AMD LTD TO CLD VIS AND WIND=



000
FTUS41 KCAR 020558
TAFBGR
TAF
KBGR 020558Z 0206/0306 VRB03KT P6SM SKC
     FM021300 23005KT P6SM FEW150=



000
FTUS41 KCAR 020558
TAFHUL
TAF
KHUL 020558Z 0206/0306 00000KT P6SM FEW200
     FM021200 23004KT P6SM SCT030
     FM022100 28007KT P6SM VCSH SCT040
     FM030100 VRB03KT P6SM SCT050=



000
FTUS41 KCAR 012346
TAFBGR
TAF
KBGR 012346Z 0200/0224 VRB03KT P6SM SKC
     FM021600 22007KT P6SM SCT100=



000
FTUS41 KCAR 012346
TAFCAR
TAF
KCAR 012346Z 0200/0224 21004KT P6SM FEW250
     FM021800 26007KT P6SM VCTS SCT025 BKN060CB
     FM022100 29010KT P6SM BKN120=



000
FTUS41 KCAR 012346
TAFPQI
TAF
KPQI 012346Z 0200/0224 00000KT P6SM SKC
     FM021800 23006KT P6SM VCTS SCT025 BKN070CB
     FM022100 29006KT P6SM BKN120
      AMD LTD TO CLD VIS AND WIND=



000
FTUS41 KCAR 012346
TAFBHB
TAF
KBHB 012346Z 0200/0224 VRB03KT P6SM SKC
     FM021600 22007KT P6SM SCT100
      AMD LTD TO CLD VIS AND WIND=



000
FTUS41 KCAR 012346
TAFHUL
TAF
KHUL 012346Z 0200/0224 VRB03KT P6SM FEW250
     FM020900 21004KT 6SM BR SKC
     FM021800 23007KT P6SM VCTS SCT030 BKN060CB
     FM022200 29007KT P6SM SCT250=



000
FTUS41 KCAR 011731
TAFBGR
TAF
KBGR 011731Z 0118/0218 VRB03KT P6SM SCT200
     FM021500 25010KT P6SM SCT080=



000
FTUS41 KCAR 011731
TAFHUL
TAF
KHUL 011731Z 0118/0218 VRB03KT P6SM SCT200
     FM021500 26010KT P6SM SCT080=



000
FTUS41 KCAR 011731
TAFBHB
TAF
KBHB 011731Z 0118/0218 33008KT P6SM SCT200
     FM012000 22006KT P6SM SCT200
     FM021500 24010KT P6SM SCT080
      AMD LTD TO CLD VIS AND WIND=



000
FTUS41 KCAR 011731
TAFPQI
TAF
KPQI 011731Z 0118/0218 VRB03KT P6SM SCT200
     FM020900 24006KT P6SM SCT080
     FM021400 27010KT P6SM BKN060
     FM021600 27010KT P6SM VCSH BKN050
      AMD LTD TO CLD VIS AND WIND=



000
FTUS41 KCAR 011731
TAFCAR
TAF
KCAR 011731Z 0118/0218 VRB03KT P6SM SCT200
     FM020900 24006KT P6SM SCT080
     FM021400 27010KT P6SM BKN060
     FM021600 27010KT P6SM VCSH BKN050=



000
FTUS41 KCAR 011731
TAFBGR
TAF
KBGR 011731Z 0118/0218 VRB03KT P6SM SCT200
     FM021500 25010KT P6SM SCT080=



000
FTUS41 KCAR 011731
TAFBHB
TAF
KBHB 011731Z 0118/0218 33008KT P6SM SCT200
     FM012000 22006KT P6SM SCT200
     FM021500 24010KT P6SM SCT080
      AMD LTD TO CLD VIS AND WIND=



000
FTUS41 KCAR 011731
TAFHUL
TAF
KHUL 011731Z 0118/0218 VRB03KT P6SM SCT200
     FM021500 26010KT P6SM SCT080=



000
FTUS41 KCAR 011731
TAFPQI
TAF
KPQI 011731Z 0118/0218 VRB03KT P6SM SCT200
     FM020900 24006KT P6SM SCT080
     FM021400 27010KT P6SM BKN060
     FM021600 27010KT P6SM VCSH BKN050
      AMD LTD TO CLD VIS AND WIND=



000
FTUS41 KCAR 011731
TAFCAR
TAF
KCAR 011731Z 0118/0218 VRB03KT P6SM SCT200
     FM020900 24006KT P6SM SCT080
     FM021400 27010KT P6SM BKN060
     FM021600 27010KT P6SM VCSH BKN050=



000
FTUS41 KCAR 011503 AAA
TAFHUL
TAF AMD
KHUL 011503Z 0115/0212 36010G18KT P6SM SCT200
     FM011800 33010KT P6SM SCT200
     FM020000 22006KT P6SM SCT200=



000
FTUS41 KCAR 011409 AAA
TAFBHB
TAF AMD
KBHB 011409Z 0114/0212 36008G16KT P6SM SKC
     FM011600 30008KT P6SM SCT200
     FM012000 20006KT P6SM SCT200
      AMD LTD TO CLD VIS AND WIND=



000
FTUS41 KCAR 011409 AAA
TAFBHB
TAF AMD
KBHB 011409Z 0114/0212 36008G16KT P6SM SKC
     FM011600 30008KT P6SM SCT200
     FM012000 20006KT P6SM SCT200
      AMD LTD TO CLD VIS AND WIND=



000
FTUS41 KCAR 011121
TAFBGR
TAF
KBGR 011121Z 0112/0212 32004KT P6SM FEW250=



000
FTUS41 KCAR 011121
TAFHUL
TAF
KHUL 011121Z 0112/0212 33005KT P6SM FEW250
     FM021000 22004KT P6SM SCT110=



000
FTUS41 KCAR 011121
TAFPQI
TAF
KPQI 011121Z 0112/0212 33004KT P6SM SCT250
     FM012000 VRB03KT P6SM SCT200
     FM021030 22004KT P6SM BKN090
      AMD LTD TO CLD VIS AND WIND=



000
FTUS41 KCAR 011121
TAFCAR
TAF
KCAR 011121Z 0112/0212 33006KT P6SM SCT250
     FM012000 VRB03KT P6SM SCT200
     FM021000 22006KT P6SM BKN080=



000
FTUS41 KCAR 011121
TAFCAR
TAF
KCAR 011121Z 0112/0212 33006KT P6SM SCT250
     FM012000 VRB03KT P6SM SCT200
     FM021000 22006KT P6SM BKN080=



000
FTUS41 KCAR 011121
TAFBHB
TAF
KBHB 011121Z 0112/0212 32005KT P6SM FEW250
     FM012000 20006KT P6SM FEW250
      AMD LTD TO CLD VIS AND WIND=



000
FTUS41 KCAR 011121
TAFBGR
TAF
KBGR 011121Z 0112/0212 32004KT P6SM FEW250=



000
FTUS41 KCAR 011121
TAFBHB
TAF
KBHB 011121Z 0112/0212 32005KT P6SM FEW250
     FM012000 20006KT P6SM FEW250
      AMD LTD TO CLD VIS AND WIND=



000
FTUS41 KCAR 011121
TAFHUL
TAF
KHUL 011121Z 0112/0212 33005KT P6SM FEW250
     FM021000 22004KT P6SM SCT110=



000
FTUS41 KCAR 011121
TAFPQI
TAF
KPQI 011121Z 0112/0212 33004KT P6SM SCT250
     FM012000 VRB03KT P6SM SCT200
     FM021030 22004KT P6SM BKN090
      AMD LTD TO CLD VIS AND WIND=



000
FTUS41 KCAR 010537
TAFHUL
TAF
KHUL 010537Z 0106/0206 33004KT P6SM SKC=



000
FTUS41 KCAR 010537
TAFCAR
TAF
KCAR 010537Z 0106/0206 33007KT P6SM FEW250
     FM012000 VRB03KT P6SM FEW150=



000
FTUS41 KCAR 010537
TAFBHB
TAF
KBHB 010537Z 0106/0206 32007KT P6SM SKC
     FM012000 VRB03KT P6SM SKC
      AMD LTD TO CLD VIS AND WIND=



000
FTUS41 KCAR 010537
TAFPQI
TAF
KPQI 010537Z 0106/0206 33004KT P6SM FEW250
      AMD LTD TO CLD VIS AND WIND=



000
FTUS41 KCAR 010537
TAFBGR
TAF
KBGR 010537Z 0106/0206 32004KT P6SM SKC=



000
FTUS41 KCAR 312345
TAFBGR
TAF
KBGR 312345Z 0100/0124 32010KT P6SM SCT070
     FM010400 VRB03KT P6SM SKC
     FM012000 23007KT P6SM SKC=



000
FTUS41 KCAR 312345
TAFBHB
TAF
KBHB 312345Z 0100/0124 28007KT P6SM SKC
     FM010600 34005KT P6SM SKC
     FM012100 22007KT P6SM SKC
      AMD LTD TO CLD VIS AND WIND=



000
FTUS41 KCAR 312345
TAFCAR
TAF
KCAR 312345Z 0100/0124 31010G20KT P6SM SCT050
     FM010400 32007KT P6SM FEW250
     FM012000 23007KT P6SM SKC=



000
FTUS41 KCAR 312345
TAFPQI
TAF
KPQI 312345Z 0100/0124 32010G20KT P6SM SCT050
     FM010600 33006KT P6SM SKC
     FM012000 23007KT P6SM FEW250
      AMD LTD TO CLD VIS AND WIND=



000
FTUS41 KCAR 312345
TAFHUL
TAF
KHUL 312345Z 0100/0124 33010KT P6SM BKN040
     FM010500 35006KT P6SM SKC
     FM011400 36006KT P6SM SKC
     FM012100 27007KT P6SM SKC=



000
FTUS41 KCAR 312117 AAA
TAFBGR
TAF AMD
KBGR 312117Z 3121/0118 28010G18KT P6SM BKN050
     FM312300 29010KT P6SM SCT050
     FM010300 33006KT P6SM SCT200=



000
FTUS41 KCAR 312045 AAA
TAFPQI
TAF AMD
KPQI 312045Z 3121/0118 32010G18KT P6SM BKN050
     FM010000 32010KT P6SM SCT050
     FM010600 34006KT P6SM SCT200
     FM011500 31006KT P6SM SCT050
      AMD LTD TO CLD VIS AND WIND=



000
FTUS41 KCAR 312042 AAA
TAFCAR
TAF AMD
KCAR 312042Z 3121/0118 32012G22KT P6SM BKN050
     FM010000 32010KT P6SM SCT050
     FM010600 34006KT P6SM SCT200
     FM011500 31006KT P6SM SCT050=



000
FTUS41 KCAR 311731
TAFHUL
TAF
KHUL 311731Z 3118/0118 26015G25KT P6SM VCSH BKN050
     FM312100 28012G22KT P6SM BKN050
     FM010000 31010KT P6SM SCT050
     FM010600 34006KT P6SM SCT200
     FM011500 31006KT P6SM SCT050=



000
FTUS41 KCAR 311731
TAFCAR
TAF
KCAR 311731Z 3118/0118 27015G25KT P6SM VCSH BKN050
     FM312100 29012G22KT P6SM BKN050
     FM010000 31010KT P6SM SCT050
     FM010600 34006KT P6SM SCT200
     FM011500 31006KT P6SM SCT050=



000
FTUS41 KCAR 311731
TAFBHB
TAF
KBHB 311731Z 3118/0118 25010G18KT P6SM BKN050
     FM312200 28010KT P6SM SCT050
     FM010300 33006KT P6SM SCT200
      AMD LTD TO CLD VIS AND WIND=



000
FTUS41 KCAR 311731
TAFPQI
TAF
KPQI 311731Z 3118/0118 27015G25KT P6SM VCSH BKN050
     FM312100 29012G22KT P6SM BKN050
     FM010000 31010KT P6SM SCT050
     FM010600 34006KT P6SM SCT200
     FM011500 31006KT P6SM SCT050
      AMD LTD TO CLD VIS AND WIND=



000
FTUS41 KCAR 311731
TAFBGR
TAF
KBGR 311731Z 3118/0118 25012G20KT P6SM BKN050
     FM312200 29010KT P6SM SCT050
     FM010300 33006KT P6SM SCT200=



000
FTUS41 KCAR 311120
TAFBGR
TAF
KBGR 311120Z 3112/0112 VRB03KT P6SM BKN090
     FM311400 25010KT P6SM SCT200
     FM010000 29005KT P6SM FEW250=



000
FTUS41 KCAR 311120
TAFHUL
TAF
KHUL 311120Z 3112/0112 23007KT P6SM BKN090
     FM311500 24012G20KT P6SM BKN050
     FM010000 32006KT P6SM SCT250=



000
FTUS41 KCAR 311120
TAFCAR
TAF
KCAR 311120Z 3112/0112 23009KT P6SM SCT090
     FM311500 25013G20KT P6SM BKN050
     FM010000 32007KT P6SM FEW250=



000
FTUS41 KCAR 311120
TAFCAR
TAF
KCAR 311120Z 3112/0112 23009KT P6SM SCT090
     FM311500 25013G20KT P6SM BKN050
     FM010000 32007KT P6SM FEW250=



000
FTUS41 KCAR 311120
TAFBHB
TAF
KBHB 311120Z 3112/0112 VRB03KT P6SM BKN090
     FM311500 25010KT P6SM FEW250
     FM010000 29007KT P6SM FEW250
      AMD LTD TO CLD VIS AND WIND=



000
FTUS41 KCAR 311120
TAFPQI
TAF
KPQI 311120Z 3112/0112 23009KT P6SM SCT090
     FM311500 24013G20KT P6SM BKN050
     FM010000 32009KT P6SM FEW250
      AMD LTD TO CLD VIS AND WIND=



000
FTUS41 KCAR 311120
TAFPQI
TAF
KPQI 311120Z 3112/0112 23009KT P6SM SCT090
     FM311500 24013G20KT P6SM BKN050
     FM010000 32009KT P6SM FEW250
      AMD LTD TO CLD VIS AND WIND=



000
FTUS41 KCAR 311120
TAFBHB
TAF
KBHB 311120Z 3112/0112 VRB03KT P6SM BKN090
     FM311500 25010KT P6SM FEW250
     FM010000 29007KT P6SM FEW250
      AMD LTD TO CLD VIS AND WIND=



000
FTUS41 KCAR 311120
TAFBGR
TAF
KBGR 311120Z 3112/0112 VRB03KT P6SM BKN090
     FM311400 25010KT P6SM SCT200
     FM010000 29005KT P6SM FEW250=



000
FTUS41 KCAR 311120
TAFHUL
TAF
KHUL 311120Z 3112/0112 23007KT P6SM BKN090
     FM311500 24012G20KT P6SM BKN050
     FM010000 32006KT P6SM SCT250=



000
FTUS41 KCAR 311010 AAB
TAFCAR
TAF AMD
KCAR 311010Z 3110/0106 22004KT P6SM SCT150
      TEMPO 3110/3111 5SM BR SCT008
     FM311200 23009KT P6SM BKN070
     FM311500 25013G20KT P6SM BKN060
     FM010000 31009KT P6SM FEW250=



000
FTUS41 KCAR 311010 AAA
TAFPQI
TAF AMD
KPQI 311010Z 3110/0106 22005KT P6SM SCT150
      TEMPO 3110/3111 5SM BR SCT009
     FM311200 23009KT P6SM BKN080
     FM311500 25013G20KT P6SM BKN060
     FM010000 32009KT P6SM FEW250
      AMD LTD TO CLD VIS AND WIND=



000
FTUS41 KCAR 311003 AAA
TAFHUL
TAF AMD
KHUL 311003Z 3110/0106 20004KT P6SM BKN080
     FM311200 23007KT P6SM SCT100
     FM311500 25012G20KT P6SM BKN080
     FM010000 31008KT P6SM SCT250=



000
FTUS41 KCAR 311003 AAA
TAFBGR
TAF AMD
KBGR 311003Z 3110/0106 VRB03KT P6SM BKN090
     FM311400 25007G18KT P6SM SCT200
     FM010000 29007KT P6SM FEW250=



    US Dept of Commerce
    National Oceanic and Atmospheric Administration
    National Weather Service
    1325 East West Highway
    Silver Spring, MD 20910
    Page Author: NWS Internet Services Team
Disclaimer
Information Quality
Credits
Glossary
Privacy Policy
Freedom of Information Act (FOIA)
About Us
Career Opportunities